sensor_id;sensor_type;location;lat;lon;timestamp;P1;durP1;ratioP1;P2;durP2;ratioP2
2610;SDS011;5612;51.134;17.058;2023-07-09T00:01:58;17.27;;;15.50;;
2610;SDS011;5612;51.134;17.058;2023-07-09T00:04:27;14.30;;;13.20;;
2610;SDS011;5612;51.134;17.058;2023-07-09T00:06:57;15.97;;;14.67;;
2610;SDS011;5612;51.134;17.058;2023-07-09T00:09:29;15.90;;;14.60;;
2610;SDS011;5612;51.134;17.058;2023-07-09T00:11:59;15.17;;;13.87;;
2610;SDS011;5612;51.134;17.058;2023-07-09T00:14:29;13.37;;;12.27;;
2610;SDS011;5612;51.134;17.058;2023-07-09T00:16:58;14.50;;;13.30;;
2610;SDS011;5612;51.134;17.058;2023-07-09T00:19:27;14.87;;;13.67;;
2610;SDS011;5612;51.134;17.058;2023-07-09T00:21:56;14.73;;;13.43;;
2610;SDS011;5612;51.134;17.058;2023-07-09T00:24:25;14.30;;;13.00;;
2610;SDS011;5612;51.134;17.058;2023-07-09T00:26:53;14.83;;;13.53;;
2610;SDS011;5612;51.134;17.058;2023-07-09T00:29:22;17.83;;;13.33;;
2610;SDS011;5612;51.134;17.058;2023-07-09T00:31:53;14.30;;;13.10;;
2610;SDS011;5612;51.134;17.058;2023-07-09T00:34:22;14.03;;;12.83;;
2610;SDS011;5612;51.134;17.058;2023-07-09T00:36:51;14.73;;;13.53;;
2610;SDS011;5612;51.134;17.058;2023-07-09T00:39:21;13.70;;;12.50;;
2610;SDS011;5612;51.134;17.058;2023-07-09T00:41:50;14.13;;;13.00;;
2610;SDS011;5612;51.134;17.058;2023-07-09T00:44:27;13.13;;;12.03;;
2610;SDS011;5612;51.134;17.058;2023-07-09T00:50:00;13.50;;;12.20;;
2610;SDS011;5612;51.134;17.058;2023-07-09T00:52:37;12.60;;;11.30;;
2610;SDS011;5612;51.134;17.058;2023-07-09T00:55:12;12.00;;;10.90;;
2610;SDS011;5612;51.134;17.058;2023-07-09T00:57:46;13.23;;;12.03;;
2610;SDS011;5612;51.134;17.058;2023-07-09T01:00:24;13.67;;;12.27;;
2610;SDS011;5612;51.134;17.058;2023-07-09T01:02:58;12.90;;;11.80;;
2610;SDS011;5612;51.134;17.058;2023-07-09T01:05:27;13.47;;;12.30;;
2610;SDS011;5612;51.134;17.058;2023-07-09T01:07:56;13.67;;;12.63;;
2610;SDS011;5612;51.134;17.058;2023-07-09T01:10:26;12.90;;;11.80;;
2610;SDS011;5612;51.134;17.058;2023-07-09T01:12:55;12.20;;;11.27;;
2610;SDS011;5612;51.134;17.058;2023-07-09T01:15:25;13.00;;;11.90;;
2610;SDS011;5612;51.134;17.058;2023-07-09T01:17:53;12.70;;;11.60;;
2610;SDS011;5612;51.134;17.058;2023-07-09T01:20:24;12.53;;;11.53;;
2610;SDS011;5612;51.134;17.058;2023-07-09T01:22:56;12.87;;;11.80;;
2610;SDS011;5612;51.134;17.058;2023-07-09T01:25:27;17.30;;;12.33;;
2610;SDS011;5612;51.134;17.058;2023-07-09T01:27:56;11.57;;;10.47;;
2610;SDS011;5612;51.134;17.058;2023-07-09T01:30:27;11.87;;;10.77;;
2610;SDS011;5612;51.134;17.058;2023-07-09T01:32:58;13.03;;;11.70;;
2610;SDS011;5612;51.134;17.058;2023-07-09T01:35:29;13.23;;;12.27;;
2610;SDS011;5612;51.134;17.058;2023-07-09T01:38:01;13.27;;;12.07;;
2610;SDS011;5612;51.134;17.058;2023-07-09T01:40:33;12.70;;;11.40;;
2610;SDS011;5612;51.134;17.058;2023-07-09T01:43:05;14.17;;;12.97;;
2610;SDS011;5612;51.134;17.058;2023-07-09T01:45:35;12.30;;;11.40;;
2610;SDS011;5612;51.134;17.058;2023-07-09T01:48:04;12.53;;;11.63;;
2610;SDS011;5612;51.134;17.058;2023-07-09T01:50:41;13.70;;;12.27;;
2610;SDS011;5612;51.134;17.058;2023-07-09T01:53:12;13.80;;;12.63;;
2610;SDS011;5612;51.134;17.058;2023-07-09T01:55:43;13.30;;;12.17;;
2610;SDS011;5612;51.134;17.058;2023-07-09T01:58:12;12.90;;;12.00;;
2610;SDS011;5612;51.134;17.058;2023-07-09T02:00:43;13.70;;;12.50;;
2610;SDS011;5612;51.134;17.058;2023-07-09T02:03:12;13.40;;;12.20;;
2610;SDS011;5612;51.134;17.058;2023-07-09T02:05:41;15.07;;;13.77;;
2610;SDS011;5612;51.134;17.058;2023-07-09T02:08:09;14.37;;;13.17;;
2610;SDS011;5612;51.134;17.058;2023-07-09T02:10:42;13.53;;;12.43;;
2610;SDS011;5612;51.134;17.058;2023-07-09T02:13:12;15.97;;;14.20;;
2610;SDS011;5612;51.134;17.058;2023-07-09T02:15:42;15.97;;;13.87;;
2610;SDS011;5612;51.134;17.058;2023-07-09T02:18:11;14.53;;;13.33;;
2610;SDS011;5612;51.134;17.058;2023-07-09T02:20:40;15.23;;;13.83;;
2610;SDS011;5612;51.134;17.058;2023-07-09T02:23:10;16.50;;;15.17;;
2610;SDS011;5612;51.134;17.058;2023-07-09T02:25:46;17.27;;;15.80;;
2610;SDS011;5612;51.134;17.058;2023-07-09T02:28:15;16.30;;;14.87;;
2610;SDS011;5612;51.134;17.058;2023-07-09T02:30:44;14.87;;;13.53;;
2610;SDS011;5612;51.134;17.058;2023-07-09T02:33:13;17.00;;;15.30;;
2610;SDS011;5612;51.134;17.058;2023-07-09T02:35:42;16.90;;;15.37;;
2610;SDS011;5612;51.134;17.058;2023-07-09T02:38:12;15.23;;;13.93;;
2610;SDS011;5612;51.134;17.058;2023-07-09T02:40:41;15.70;;;14.40;;
2610;SDS011;5612;51.134;17.058;2023-07-09T02:43:10;16.30;;;14.80;;
2610;SDS011;5612;51.134;17.058;2023-07-09T02:45:39;20.37;;;15.40;;
2610;SDS011;5612;51.134;17.058;2023-07-09T02:48:08;15.60;;;14.30;;
2610;SDS011;5612;51.134;17.058;2023-07-09T02:50:37;16.70;;;15.40;;
2610;SDS011;5612;51.134;17.058;2023-07-09T02:53:05;19.00;;;13.73;;
2610;SDS011;5612;51.134;17.058;2023-07-09T02:55:36;16.23;;;14.83;;
2610;SDS011;5612;51.134;17.058;2023-07-09T02:58:04;16.33;;;14.80;;
2610;SDS011;5612;51.134;17.058;2023-07-09T03:00:33;15.13;;;14.03;;
2610;SDS011;5612;51.134;17.058;2023-07-09T03:03:02;14.63;;;13.33;;
2610;SDS011;5612;51.134;17.058;2023-07-09T03:05:31;15.40;;;14.10;;
2610;SDS011;5612;51.134;17.058;2023-07-09T03:08:01;14.60;;;13.30;;
2610;SDS011;5612;51.134;17.058;2023-07-09T03:10:30;15.07;;;13.87;;
2610;SDS011;5612;51.134;17.058;2023-07-09T03:13:00;15.27;;;13.87;;
2610;SDS011;5612;51.134;17.058;2023-07-09T03:15:29;16.37;;;14.77;;
2610;SDS011;5612;51.134;17.058;2023-07-09T03:17:58;14.27;;;12.97;;
2610;SDS011;5612;51.134;17.058;2023-07-09T03:20:27;16.83;;;15.20;;
2610;SDS011;5612;51.134;17.058;2023-07-09T03:22:56;13.60;;;12.50;;
2610;SDS011;5612;51.134;17.058;2023-07-09T03:25:25;14.00;;;12.80;;
2610;SDS011;5612;51.134;17.058;2023-07-09T03:27:53;15.47;;;13.97;;
2610;SDS011;5612;51.134;17.058;2023-07-09T03:30:24;16.43;;;14.90;;
2610;SDS011;5612;51.134;17.058;2023-07-09T03:32:53;15.60;;;14.03;;
2610;SDS011;5612;51.134;17.058;2023-07-09T03:35:21;13.60;;;12.50;;
2610;SDS011;5612;51.134;17.058;2023-07-09T03:37:50;14.93;;;13.70;;
2610;SDS011;5612;51.134;17.058;2023-07-09T03:40:20;15.40;;;13.87;;
2610;SDS011;5612;51.134;17.058;2023-07-09T03:42:50;14.20;;;13.10;;
2610;SDS011;5612;51.134;17.058;2023-07-09T03:45:19;14.80;;;13.40;;
2610;SDS011;5612;51.134;17.058;2023-07-09T03:47:49;14.60;;;13.50;;
2610;SDS011;5612;51.134;17.058;2023-07-09T03:50:18;14.70;;;13.40;;
2610;SDS011;5612;51.134;17.058;2023-07-09T03:52:47;15.07;;;13.77;;
2610;SDS011;5612;51.134;17.058;2023-07-09T03:55:16;15.27;;;13.73;;
2610;SDS011;5612;51.134;17.058;2023-07-09T03:57:45;13.77;;;12.57;;
2610;SDS011;5612;51.134;17.058;2023-07-09T04:00:15;13.43;;;12.13;;
2610;SDS011;5612;51.134;17.058;2023-07-09T04:02:44;15.53;;;14.17;;
2610;SDS011;5612;51.134;17.058;2023-07-09T04:05:15;13.23;;;12.13;;
2610;SDS011;5612;51.134;17.058;2023-07-09T04:07:44;17.43;;;14.00;;
2610;SDS011;5612;51.134;17.058;2023-07-09T04:10:13;13.87;;;12.77;;
2610;SDS011;5612;51.134;17.058;2023-07-09T04:12:42;14.77;;;13.50;;
2610;SDS011;5612;51.134;17.058;2023-07-09T04:15:11;15.57;;;14.03;;
2610;SDS011;5612;51.134;17.058;2023-07-09T04:17:41;14.50;;;13.30;;
2610;SDS011;5612;51.134;17.058;2023-07-09T04:20:10;14.90;;;13.70;;
2610;SDS011;5612;51.134;17.058;2023-07-09T04:22:41;13.67;;;12.47;;
2610;SDS011;5612;51.134;17.058;2023-07-09T04:25:10;14.33;;;12.83;;
2610;SDS011;5612;51.134;17.058;2023-07-09T04:27:39;14.17;;;12.93;;
2610;SDS011;5612;51.134;17.058;2023-07-09T04:30:09;14.53;;;13.17;;
2610;SDS011;5612;51.134;17.058;2023-07-09T04:32:39;13.87;;;12.73;;
2610;SDS011;5612;51.134;17.058;2023-07-09T04:35:10;13.47;;;12.30;;
2610;SDS011;5612;51.134;17.058;2023-07-09T04:37:41;14.27;;;13.03;;
2610;SDS011;5612;51.134;17.058;2023-07-09T04:40:11;14.07;;;12.67;;
2610;SDS011;5612;51.134;17.058;2023-07-09T04:42:41;13.90;;;12.80;;
2610;SDS011;5612;51.134;17.058;2023-07-09T04:45:11;13.27;;;12.03;;
2610;SDS011;5612;51.134;17.058;2023-07-09T04:47:40;13.50;;;12.23;;
2610;SDS011;5612;51.134;17.058;2023-07-09T04:50:09;14.03;;;12.83;;
2610;SDS011;5612;51.134;17.058;2023-07-09T04:52:42;13.50;;;12.40;;
2610;SDS011;5612;51.134;17.058;2023-07-09T04:55:11;14.03;;;12.93;;
2610;SDS011;5612;51.134;17.058;2023-07-09T04:57:39;12.53;;;11.53;;
2610;SDS011;5612;51.134;17.058;2023-07-09T05:00:08;15.10;;;13.80;;
2610;SDS011;5612;51.134;17.058;2023-07-09T05:02:38;13.17;;;12.07;;
2610;SDS011;5612;51.134;17.058;2023-07-09T05:05:07;14.60;;;13.30;;
2610;SDS011;5612;51.134;17.058;2023-07-09T05:07:37;13.47;;;12.47;;
2610;SDS011;5612;51.134;17.058;2023-07-09T05:10:08;13.77;;;12.57;;
2610;SDS011;5612;51.134;17.058;2023-07-09T05:12:46;15.93;;;12.47;;
2610;SDS011;5612;51.134;17.058;2023-07-09T05:15:17;14.37;;;13.13;;
2610;SDS011;5612;51.134;17.058;2023-07-09T05:17:46;14.50;;;13.10;;
2610;SDS011;5612;51.134;17.058;2023-07-09T05:20:15;13.93;;;12.20;;
2610;SDS011;5612;51.134;17.058;2023-07-09T05:22:44;15.13;;;13.60;;
2610;SDS011;5612;51.134;17.058;2023-07-09T05:25:15;14.33;;;12.93;;
2610;SDS011;5612;51.134;17.058;2023-07-09T05:27:44;13.33;;;12.13;;
2610;SDS011;5612;51.134;17.058;2023-07-09T05:30:13;15.40;;;13.87;;
2610;SDS011;5612;51.134;17.058;2023-07-09T05:32:42;14.33;;;12.73;;
2610;SDS011;5612;51.134;17.058;2023-07-09T05:35:11;14.10;;;12.80;;
2610;SDS011;5612;51.134;17.058;2023-07-09T05:37:40;14.87;;;13.67;;
2610;SDS011;5612;51.134;17.058;2023-07-09T05:40:09;14.50;;;13.20;;
2610;SDS011;5612;51.134;17.058;2023-07-09T05:42:39;13.83;;;12.63;;
2610;SDS011;5612;51.134;17.058;2023-07-09T05:45:08;14.23;;;13.13;;
2610;SDS011;5612;51.134;17.058;2023-07-09T05:47:38;14.43;;;13.07;;
2610;SDS011;5612;51.134;17.058;2023-07-09T05:50:07;15.37;;;14.27;;
2610;SDS011;5612;51.134;17.058;2023-07-09T05:52:36;15.93;;;14.60;;
2610;SDS011;5612;51.134;17.058;2023-07-09T05:55:05;13.97;;;11.20;;
2610;SDS011;5612;51.134;17.058;2023-07-09T05:57:35;12.50;;;11.40;;
2610;SDS011;5612;51.134;17.058;2023-07-09T06:00:07;13.90;;;12.70;;
2610;SDS011;5612;51.134;17.058;2023-07-09T06:02:38;12.20;;;10.90;;
2610;SDS011;5612;51.134;17.058;2023-07-09T06:05:07;13.80;;;12.60;;
2610;SDS011;5612;51.134;17.058;2023-07-09T06:07:38;14.23;;;11.53;;
2610;SDS011;5612;51.134;17.058;2023-07-09T06:10:07;12.40;;;11.40;;
2610;SDS011;5612;51.134;17.058;2023-07-09T06:12:37;13.43;;;12.27;;
2610;SDS011;5612;51.134;17.058;2023-07-09T06:15:09;12.33;;;11.30;;
2610;SDS011;5612;51.134;17.058;2023-07-09T06:17:39;13.17;;;11.87;;
2610;SDS011;5612;51.134;17.058;2023-07-09T06:20:09;12.97;;;11.77;;
2610;SDS011;5612;51.134;17.058;2023-07-09T06:22:38;12.97;;;11.87;;
2610;SDS011;5612;51.134;17.058;2023-07-09T06:25:07;13.20;;;12.00;;
2610;SDS011;5612;51.134;17.058;2023-07-09T06:27:37;15.17;;;13.67;;
2610;SDS011;5612;51.134;17.058;2023-07-09T06:30:08;13.63;;;12.30;;
2610;SDS011;5612;51.134;17.058;2023-07-09T06:32:37;13.70;;;12.40;;
2610;SDS011;5612;51.134;17.058;2023-07-09T06:35:07;11.33;;;10.30;;
2610;SDS011;5612;51.134;17.058;2023-07-09T06:37:36;11.60;;;10.60;;
2610;SDS011;5612;51.134;17.058;2023-07-09T06:40:05;12.23;;;11.23;;
2610;SDS011;5612;51.134;17.058;2023-07-09T06:42:35;11.40;;;10.43;;
2610;SDS011;5612;51.134;17.058;2023-07-09T06:45:05;11.43;;;10.60;;
2610;SDS011;5612;51.134;17.058;2023-07-09T06:47:36;11.20;;;10.30;;
2610;SDS011;5612;51.134;17.058;2023-07-09T06:50:05;14.50;;;11.37;;
2610;SDS011;5612;51.134;17.058;2023-07-09T06:52:35;11.50;;;10.77;;
2610;SDS011;5612;51.134;17.058;2023-07-09T06:55:04;12.10;;;11.00;;
2610;SDS011;5612;51.134;17.058;2023-07-09T06:57:34;12.23;;;11.23;;
2610;SDS011;5612;51.134;17.058;2023-07-09T07:00:03;11.33;;;10.33;;
2610;SDS011;5612;51.134;17.058;2023-07-09T07:02:35;10.77;;;9.93;;
2610;SDS011;5612;51.134;17.058;2023-07-09T07:05:04;12.47;;;11.33;;
2610;SDS011;5612;51.134;17.058;2023-07-09T07:07:33;11.50;;;9.33;;
2610;SDS011;5612;51.134;17.058;2023-07-09T07:10:02;10.50;;;9.33;;
2610;SDS011;5612;51.134;17.058;2023-07-09T07:12:40;11.10;;;10.00;;
2610;SDS011;5612;51.134;17.058;2023-07-09T07:15:10;10.20;;;9.40;;
2610;SDS011;5612;51.134;17.058;2023-07-09T07:17:43;10.30;;;9.27;;
2610;SDS011;5612;51.134;17.058;2023-07-09T07:20:12;10.40;;;9.10;;
2610;SDS011;5612;51.134;17.058;2023-07-09T07:22:43;9.93;;;9.17;;
2610;SDS011;5612;51.134;17.058;2023-07-09T07:25:13;9.17;;;8.43;;
2610;SDS011;5612;51.134;17.058;2023-07-09T07:27:42;8.27;;;7.67;;
2610;SDS011;5612;51.134;17.058;2023-07-09T07:30:11;10.03;;;9.00;;
2610;SDS011;5612;51.134;17.058;2023-07-09T07:32:43;9.85;;;8.90;;
2610;SDS011;5612;51.134;17.058;2023-07-09T07:35:14;9.68;;;8.88;;
2610;SDS011;5612;51.134;17.058;2023-07-09T07:37:43;8.45;;;7.80;;
2610;SDS011;5612;51.134;17.058;2023-07-09T07:40:12;9.43;;;8.65;;
2610;SDS011;5612;51.134;17.058;2023-07-09T07:42:41;8.23;;;7.50;;
2610;SDS011;5612;51.134;17.058;2023-07-09T07:45:10;8.65;;;7.95;;
2610;SDS011;5612;51.134;17.058;2023-07-09T07:47:39;8.98;;;8.27;;
2610;SDS011;5612;51.134;17.058;2023-07-09T07:50:09;9.73;;;8.07;;
2610;SDS011;5612;51.134;17.058;2023-07-09T07:52:38;8.30;;;7.70;;
2610;SDS011;5612;51.134;17.058;2023-07-09T07:55:07;7.50;;;6.85;;
2610;SDS011;5612;51.134;17.058;2023-07-09T07:57:42;8.55;;;7.90;;
2610;SDS011;5612;51.134;17.058;2023-07-09T08:00:12;8.10;;;7.40;;
2610;SDS011;5612;51.134;17.058;2023-07-09T08:02:41;8.32;;;7.53;;
2610;SDS011;5612;51.134;17.058;2023-07-09T08:05:12;6.78;;;6.28;;
2610;SDS011;5612;51.134;17.058;2023-07-09T08:07:41;15.85;;;12.35;;
2610;SDS011;5612;51.134;17.058;2023-07-09T08:10:11;11.63;;;10.43;;
2610;SDS011;5612;51.134;17.058;2023-07-09T08:12:42;6.63;;;6.10;;
2610;SDS011;5612;51.134;17.058;2023-07-09T08:15:11;7.60;;;6.90;;
2610;SDS011;5612;51.134;17.058;2023-07-09T08:17:39;7.07;;;6.53;;
2610;SDS011;5612;51.134;17.058;2023-07-09T08:20:09;7.35;;;6.63;;
2610;SDS011;5612;51.134;17.058;2023-07-09T08:22:39;5.30;;;5.00;;
2610;SDS011;5612;51.134;17.058;2023-07-09T08:25:08;6.03;;;5.60;;
2610;SDS011;5612;51.134;17.058;2023-07-09T08:27:37;5.90;;;5.50;;
2610;SDS011;5612;51.134;17.058;2023-07-09T08:30:06;5.18;;;4.63;;
2610;SDS011;5612;51.134;17.058;2023-07-09T08:32:36;7.25;;;5.60;;
2610;SDS011;5612;51.134;17.058;2023-07-09T08:35:05;4.78;;;4.47;;
2610;SDS011;5612;51.134;17.058;2023-07-09T08:37:41;5.10;;;4.63;;
2610;SDS011;5612;51.134;17.058;2023-07-09T08:40:12;5.85;;;5.35;;
2610;SDS011;5612;51.134;17.058;2023-07-09T08:42:43;5.38;;;5.07;;
2610;SDS011;5612;51.134;17.058;2023-07-09T08:45:29;4.95;;;4.65;;
2610;SDS011;5612;51.134;17.058;2023-07-09T08:48:09;5.32;;;5.00;;
2610;SDS011;5612;51.134;17.058;2023-07-09T08:50:47;4.90;;;4.60;;
2610;SDS011;5612;51.134;17.058;2023-07-09T08:53:24;5.35;;;4.97;;
2610;SDS011;5612;51.134;17.058;2023-07-09T08:55:59;5.57;;;4.38;;
2610;SDS011;5612;51.134;17.058;2023-07-09T08:58:28;5.47;;;5.07;;
2610;SDS011;5612;51.134;17.058;2023-07-09T09:00:59;5.25;;;4.88;;
2610;SDS011;5612;51.134;17.058;2023-07-09T09:03:35;4.82;;;4.57;;
2610;SDS011;5612;51.134;17.058;2023-07-09T09:06:10;4.68;;;4.47;;
2610;SDS011;5612;51.134;17.058;2023-07-09T09:08:43;5.05;;;4.75;;
2610;SDS011;5612;51.134;17.058;2023-07-09T09:11:20;4.07;;;3.78;;
2610;SDS011;5612;51.134;17.058;2023-07-09T09:14:00;4.85;;;4.50;;
2610;SDS011;5612;51.134;17.058;2023-07-09T09:16:35;4.03;;;3.63;;
2610;SDS011;5612;51.134;17.058;2023-07-09T09:19:11;3.60;;;3.40;;
2610;SDS011;5612;51.134;17.058;2023-07-09T09:21:48;3.83;;;3.72;;
2610;SDS011;5612;51.134;17.058;2023-07-09T09:24:26;4.28;;;3.97;;
2610;SDS011;5612;51.134;17.058;2023-07-09T09:26:58;4.25;;;3.97;;
2610;SDS011;5612;51.134;17.058;2023-07-09T09:29:27;4.55;;;4.00;;
2610;SDS011;5612;51.134;17.058;2023-07-09T09:31:56;3.65;;;3.45;;
2610;SDS011;5612;51.134;17.058;2023-07-09T09:34:29;3.58;;;3.28;;
2610;SDS011;5612;51.134;17.058;2023-07-09T09:36:58;3.85;;;3.63;;
2610;SDS011;5612;51.134;17.058;2023-07-09T09:39:28;3.28;;;3.05;;
2610;SDS011;5612;51.134;17.058;2023-07-09T09:41:58;3.53;;;3.33;;
2610;SDS011;5612;51.134;17.058;2023-07-09T09:44:28;4.13;;;3.70;;
2610;SDS011;5612;51.134;17.058;2023-07-09T09:47:00;5.30;;;3.85;;
2610;SDS011;5612;51.134;17.058;2023-07-09T09:49:29;3.30;;;3.10;;
2610;SDS011;5612;51.134;17.058;2023-07-09T09:52:06;3.13;;;2.92;;
2610;SDS011;5612;51.134;17.058;2023-07-09T09:54:46;3.75;;;3.38;;
2610;SDS011;5612;51.134;17.058;2023-07-09T09:57:21;3.75;;;3.55;;
2610;SDS011;5612;51.134;17.058;2023-07-09T09:59:53;3.75;;;3.55;;
2610;SDS011;5612;51.134;17.058;2023-07-09T10:02:24;3.08;;;2.97;;
2610;SDS011;5612;51.134;17.058;2023-07-09T10:04:53;3.38;;;3.17;;
2610;SDS011;5612;51.134;17.058;2023-07-09T10:07:23;3.00;;;2.80;;
2610;SDS011;5612;51.134;17.058;2023-07-09T10:10:02;3.30;;;3.10;;
2610;SDS011;5612;51.134;17.058;2023-07-09T10:12:41;3.78;;;3.47;;
2610;SDS011;5612;51.134;17.058;2023-07-09T10:15:24;3.22;;;3.03;;
2610;SDS011;5612;51.134;17.058;2023-07-09T10:18:01;3.00;;;2.90;;
2610;SDS011;5612;51.134;17.058;2023-07-09T10:20:36;3.47;;;3.28;;
2610;SDS011;5612;51.134;17.058;2023-07-09T10:23:13;3.72;;;3.53;;
2610;SDS011;5612;51.134;17.058;2023-07-09T10:25:54;3.17;;;3.08;;
2610;SDS011;5612;51.134;17.058;2023-07-09T10:28:35;3.83;;;3.58;;
2610;SDS011;5612;51.134;17.058;2023-07-09T10:31:23;4.30;;;3.60;;
2610;SDS011;5612;51.134;17.058;2023-07-09T10:34:04;3.10;;;2.90;;
2610;SDS011;5612;51.134;17.058;2023-07-09T10:36:45;4.70;;;3.72;;
2610;SDS011;5612;51.134;17.058;2023-07-09T10:39:31;3.05;;;2.90;;
2610;SDS011;5612;51.134;17.058;2023-07-09T10:42:04;3.28;;;3.08;;
2610;SDS011;5612;51.134;17.058;2023-07-09T10:44:41;2.95;;;2.85;;
2610;SDS011;5612;51.134;17.058;2023-07-09T10:47:16;3.70;;;3.40;;
2610;SDS011;5612;51.134;17.058;2023-07-09T10:49:53;3.45;;;3.25;;
2610;SDS011;5612;51.134;17.058;2023-07-09T10:52:25;3.90;;;3.60;;
2610;SDS011;5612;51.134;17.058;2023-07-09T10:54:59;2.70;;;2.60;;
2610;SDS011;5612;51.134;17.058;2023-07-09T10:57:39;4.68;;;3.13;;
2610;SDS011;5612;51.134;17.058;2023-07-09T11:00:14;3.10;;;2.92;;
2610;SDS011;5612;51.134;17.058;2023-07-09T11:02:47;3.10;;;3.00;;
2610;SDS011;5612;51.134;17.058;2023-07-09T11:05:28;3.88;;;3.67;;
2610;SDS011;5612;51.134;17.058;2023-07-09T11:07:59;3.22;;;3.13;;
2610;SDS011;5612;51.134;17.058;2023-07-09T11:10:31;3.40;;;3.30;;
2610;SDS011;5612;51.134;17.058;2023-07-09T11:13:07;3.20;;;3.00;;
2610;SDS011;5612;51.134;17.058;2023-07-09T11:15:44;4.05;;;3.75;;
2610;SDS011;5612;51.134;17.058;2023-07-09T11:18:16;3.63;;;3.42;;
2610;SDS011;5612;51.134;17.058;2023-07-09T11:20:54;3.70;;;3.50;;
2610;SDS011;5612;51.134;17.058;2023-07-09T11:23:37;3.47;;;3.35;;
2610;SDS011;5612;51.134;17.058;2023-07-09T11:26:12;4.00;;;3.80;;
2610;SDS011;5612;51.134;17.058;2023-07-09T11:28:46;3.88;;;3.67;;
2610;SDS011;5612;51.134;17.058;2023-07-09T11:31:20;4.68;;;4.30;;
2610;SDS011;5612;51.134;17.058;2023-07-09T11:34:01;3.72;;;3.53;;
2610;SDS011;5612;51.134;17.058;2023-07-09T11:36:45;3.50;;;3.30;;
2610;SDS011;5612;51.134;17.058;2023-07-09T11:39:19;3.10;;;3.00;;
2610;SDS011;5612;51.134;17.058;2023-07-09T11:41:50;3.55;;;3.17;;
2610;SDS011;5612;51.134;17.058;2023-07-09T11:44:21;3.63;;;3.42;;
2610;SDS011;5612;51.134;17.058;2023-07-09T11:47:03;4.78;;;3.50;;
2610;SDS011;5612;51.134;17.058;2023-07-09T11:49:46;3.83;;;3.63;;
2610;SDS011;5612;51.134;17.058;2023-07-09T11:52:19;4.60;;;4.30;;
2610;SDS011;5612;51.134;17.058;2023-07-09T11:54:53;3.05;;;2.95;;
2610;SDS011;5612;51.134;17.058;2023-07-09T11:57:22;3.63;;;3.42;;
2610;SDS011;5612;51.134;17.058;2023-07-09T11:59:52;3.15;;;2.95;;
2610;SDS011;5612;51.134;17.058;2023-07-09T12:02:30;3.22;;;3.13;;
2610;SDS011;5612;51.134;17.058;2023-07-09T12:05:02;3.55;;;3.35;;
2610;SDS011;5612;51.134;17.058;2023-07-09T12:07:33;3.70;;;3.50;;
2610;SDS011;5612;51.134;17.058;2023-07-09T12:10:03;3.75;;;3.55;;
2610;SDS011;5612;51.134;17.058;2023-07-09T12:12:48;4.13;;;3.92;;
2610;SDS011;5612;51.134;17.058;2023-07-09T12:15:24;3.80;;;3.60;;
2610;SDS011;5612;51.134;17.058;2023-07-09T12:17:57;3.88;;;3.60;;
2610;SDS011;5612;51.134;17.058;2023-07-09T12:20:29;4.18;;;3.97;;
2610;SDS011;5612;51.134;17.058;2023-07-09T12:23:00;3.80;;;3.58;;
2610;SDS011;5612;51.134;17.058;2023-07-09T12:25:38;3.67;;;3.47;;
2610;SDS011;5612;51.134;17.058;2023-07-09T12:28:15;4.20;;;3.75;;
2610;SDS011;5612;51.134;17.058;2023-07-09T12:30:47;3.92;;;3.40;;
2610;SDS011;5612;51.134;17.058;2023-07-09T12:33:16;4.45;;;3.95;;
2610;SDS011;5612;51.134;17.058;2023-07-09T12:35:46;4.18;;;3.88;;
2610;SDS011;5612;51.134;17.058;2023-07-09T12:38:18;3.75;;;3.55;;
2610;SDS011;5612;51.134;17.058;2023-07-09T12:40:48;3.20;;;3.03;;
2610;SDS011;5612;51.134;17.058;2023-07-09T12:43:19;4.05;;;3.75;;
2610;SDS011;5612;51.134;17.058;2023-07-09T12:45:56;3.90;;;3.70;;
2610;SDS011;5612;51.134;17.058;2023-07-09T12:48:26;3.90;;;3.70;;
2610;SDS011;5612;51.134;17.058;2023-07-09T12:50:58;4.18;;;3.97;;
2610;SDS011;5612;51.134;17.058;2023-07-09T12:53:28;4.32;;;3.65;;
2610;SDS011;5612;51.134;17.058;2023-07-09T12:55:58;3.60;;;3.40;;
2610;SDS011;5612;51.134;17.058;2023-07-09T12:58:29;3.42;;;3.22;;
2610;SDS011;5612;51.134;17.058;2023-07-09T13:01:04;3.83;;;3.63;;
2610;SDS011;5612;51.134;17.058;2023-07-09T13:03:34;4.05;;;3.85;;
2610;SDS011;5612;51.134;17.058;2023-07-09T13:06:04;3.33;;;3.22;;
2610;SDS011;5612;51.134;17.058;2023-07-09T13:08:55;3.80;;;3.60;;
2610;SDS011;5612;51.134;17.058;2023-07-09T13:11:25;4.60;;;4.22;;
2610;SDS011;5612;51.134;17.058;2023-07-09T13:14:02;3.67;;;3.38;;
2610;SDS011;5612;51.134;17.058;2023-07-09T13:16:39;3.47;;;3.28;;
2610;SDS011;5612;51.134;17.058;2023-07-09T13:19:12;9.30;;;4.22;;
2610;SDS011;5612;51.134;17.058;2023-07-09T13:21:41;3.20;;;3.10;;
2610;SDS011;5612;51.134;17.058;2023-07-09T13:24:14;4.30;;;4.00;;
2610;SDS011;5612;51.134;17.058;2023-07-09T13:26:48;4.50;;;4.30;;
2610;SDS011;5612;51.134;17.058;2023-07-09T13:29:17;4.43;;;3.78;;
2610;SDS011;5612;51.134;17.058;2023-07-09T13:31:48;3.88;;;3.60;;
2610;SDS011;5612;51.134;17.058;2023-07-09T13:34:19;3.80;;;3.50;;
2610;SDS011;5612;51.134;17.058;2023-07-09T13:36:50;3.42;;;3.33;;
2610;SDS011;5612;51.134;17.058;2023-07-09T13:39:20;3.75;;;3.65;;
2610;SDS011;5612;51.134;17.058;2023-07-09T13:41:52;3.60;;;3.35;;
2610;SDS011;5612;51.134;17.058;2023-07-09T13:44:22;3.95;;;3.65;;
2610;SDS011;5612;51.134;17.058;2023-07-09T13:46:54;4.70;;;3.72;;
2610;SDS011;5612;51.134;17.058;2023-07-09T13:49:25;4.28;;;3.88;;
2610;SDS011;5612;51.134;17.058;2023-07-09T13:51:56;3.50;;;3.40;;
2610;SDS011;5612;51.134;17.058;2023-07-09T13:54:27;4.05;;;3.72;;
2610;SDS011;5612;51.134;17.058;2023-07-09T13:57:02;3.83;;;3.50;;
2610;SDS011;5612;51.134;17.058;2023-07-09T13:59:33;4.10;;;3.80;;
2610;SDS011;5612;51.134;17.058;2023-07-09T14:02:08;3.70;;;3.53;;
2610;SDS011;5612;51.134;17.058;2023-07-09T14:04:47;4.13;;;3.28;;
2610;SDS011;5612;51.134;17.058;2023-07-09T14:07:22;4.57;;;4.28;;
2610;SDS011;5612;51.134;17.058;2023-07-09T14:09:54;4.53;;;4.22;;
2610;SDS011;5612;51.134;17.058;2023-07-09T14:12:23;4.25;;;4.03;;
2610;SDS011;5612;51.134;17.058;2023-07-09T14:14:53;4.05;;;3.80;;
2610;SDS011;5612;51.134;17.058;2023-07-09T14:17:26;3.78;;;3.58;;
2610;SDS011;5612;51.134;17.058;2023-07-09T14:19:55;4.32;;;4.03;;
2610;SDS011;5612;51.134;17.058;2023-07-09T14:22:27;4.07;;;3.78;;
2610;SDS011;5612;51.134;17.058;2023-07-09T14:25:01;4.22;;;3.92;;
2610;SDS011;5612;51.134;17.058;2023-07-09T14:27:30;3.67;;;3.50;;
2610;SDS011;5612;51.134;17.058;2023-07-09T14:29:59;3.83;;;3.63;;
2610;SDS011;5612;51.134;17.058;2023-07-09T14:32:34;3.50;;;3.30;;
2610;SDS011;5612;51.134;17.058;2023-07-09T14:35:09;3.80;;;3.60;;
2610;SDS011;5612;51.134;17.058;2023-07-09T14:37:41;3.50;;;3.30;;
2610;SDS011;5612;51.134;17.058;2023-07-09T14:40:11;4.03;;;3.72;;
2610;SDS011;5612;51.134;17.058;2023-07-09T14:42:43;3.95;;;3.70;;
2610;SDS011;5612;51.134;17.058;2023-07-09T14:45:16;3.60;;;3.40;;
2610;SDS011;5612;51.134;17.058;2023-07-09T14:47:49;5.05;;;4.75;;
2610;SDS011;5612;51.134;17.058;2023-07-09T14:50:19;5.13;;;4.82;;
2610;SDS011;5612;51.134;17.058;2023-07-09T14:52:51;4.25;;;4.05;;
2610;SDS011;5612;51.134;17.058;2023-07-09T14:55:20;4.18;;;3.70;;
2610;SDS011;5612;51.134;17.058;2023-07-09T14:57:51;3.90;;;3.70;;
2610;SDS011;5612;51.134;17.058;2023-07-09T15:00:21;4.25;;;3.95;;
2610;SDS011;5612;51.134;17.058;2023-07-09T15:02:53;3.10;;;3.00;;
2610;SDS011;5612;51.134;17.058;2023-07-09T15:05:23;3.85;;;3.55;;
2610;SDS011;5612;51.134;17.058;2023-07-09T15:07:54;4.20;;;4.00;;
2610;SDS011;5612;51.134;17.058;2023-07-09T15:10:24;4.47;;;4.18;;
2610;SDS011;5612;51.134;17.058;2023-07-09T15:12:54;3.80;;;3.60;;
2610;SDS011;5612;51.134;17.058;2023-07-09T15:15:24;4.20;;;3.90;;
2610;SDS011;5612;51.134;17.058;2023-07-09T15:17:57;4.00;;;3.70;;